createdAt,value
2022-10-15T00:01:31.246Z,8.40
2022-10-15T00:06:30.237Z,8.30
2022-10-15T00:08:58.343Z,8.30
2022-10-15T00:11:28.083Z,8.30
2022-10-15T00:13:58.032Z,8.20
2022-10-15T00:16:29.797Z,8.20
2022-10-15T00:18:59.421Z,8.20
2022-10-15T00:21:28.136Z,8.20
2022-10-15T00:23:57.188Z,8.20
2022-10-15T00:26:27.375Z,8.20
2022-10-15T00:28:58.547Z,8.20
2022-10-15T00:31:30.298Z,8.20
2022-10-15T00:34:00.203Z,8.10
2022-10-15T00:36:30.680Z,8.00
2022-10-15T00:38:59.208Z,8.00
2022-10-15T00:41:29.585Z,8.00
2022-10-15T00:43:59.517Z,7.90
2022-10-15T00:46:33.241Z,7.90
2022-10-15T00:49:09.553Z,7.90
2022-10-15T00:51:43.868Z,7.90
2022-10-15T00:54:13.005Z,7.80
2022-10-15T00:56:42.523Z,7.80
2022-10-15T00:59:12.056Z,7.80
2022-10-15T01:01:41.856Z,7.80
2022-10-15T01:04:10.269Z,7.80
2022-10-15T01:06:39.258Z,7.80
2022-10-15T01:09:08.004Z,7.80
2022-10-15T01:11:41.522Z,7.70
2022-10-15T01:14:28.129Z,7.80
2022-10-15T01:17:05.938Z,7.80
2022-10-15T01:19:58.924Z,7.80
2022-10-15T01:22:42.921Z,7.80
2022-10-15T01:25:22.914Z,7.80
2022-10-15T01:27:56.003Z,7.70
2022-10-15T01:30:27.763Z,7.70
2022-10-15T01:33:17.031Z,7.70
2022-10-15T01:35:49.716Z,7.70
2022-10-15T01:38:31.503Z,7.80
2022-10-15T01:41:05.029Z,7.70
2022-10-15T01:43:39.497Z,7.90
2022-10-15T01:46:40.760Z,7.70
2022-10-15T01:49:15.556Z,7.80
2022-10-15T01:51:45.952Z,7.70
2022-10-15T01:54:18.854Z,7.70
2022-10-15T01:56:50.697Z,7.70
2022-10-15T01:59:24.630Z,7.70
2022-10-15T02:01:57.900Z,7.60
2022-10-15T02:04:28.310Z,7.60
2022-10-15T02:07:02.374Z,7.50
2022-10-15T02:09:39.964Z,7.50
2022-10-15T02:12:19.555Z,7.50
2022-10-15T02:14:56.505Z,7.50
2022-10-15T02:17:33.317Z,7.50
2022-10-15T02:20:07.255Z,7.70
2022-10-15T02:22:40.838Z,7.70
2022-10-15T02:25:15.113Z,7.80
2022-10-15T02:27:45.457Z,7.80
2022-10-15T02:30:14.547Z,7.90
2022-10-15T02:32:47.961Z,7.90
2022-10-15T02:35:16.482Z,7.90
2022-10-15T02:37:49.650Z,7.90
2022-10-15T02:40:22.990Z,8.00
2022-10-15T02:42:51.789Z,8.00
2022-10-15T02:45:20.068Z,7.90
2022-10-15T02:47:49.519Z,7.90
2022-10-15T02:50:20.428Z,7.90
2022-10-15T02:52:48.494Z,7.90
2022-10-15T02:55:16.706Z,7.90
2022-10-15T02:57:45.035Z,7.80
2022-10-15T03:00:14.300Z,7.80
2022-10-15T03:02:42.401Z,7.80
2022-10-15T03:05:12.306Z,7.80
2022-10-15T03:07:40.381Z,7.80
2022-10-15T03:10:09.668Z,7.70
2022-10-15T03:12:37.938Z,7.70
2022-10-15T03:15:08.538Z,7.70
2022-10-15T03:17:37.334Z,7.60
2022-10-15T03:20:06.388Z,7.70
2022-10-15T03:22:39.410Z,7.70
2022-10-15T03:25:08.053Z,7.70
2022-10-15T03:27:36.204Z,7.70
2022-10-15T03:30:09.044Z,7.70
2022-10-15T03:32:37.135Z,7.80
2022-10-15T03:35:08.097Z,7.90
2022-10-15T03:37:36.752Z,7.90
2022-10-15T03:40:13.607Z,8.00
2022-10-15T03:42:43.798Z,8.00
2022-10-15T03:45:12.936Z,8.00
2022-10-15T03:47:41.184Z,7.90
2022-10-15T03:50:09.935Z,8.00
2022-10-15T03:52:38.343Z,8.00
2022-10-15T03:55:09.496Z,8.10
2022-10-15T03:57:38.401Z,8.20
2022-10-15T04:00:09.587Z,8.20
2022-10-15T04:02:43.311Z,8.30
2022-10-15T04:05:23.690Z,8.40
2022-10-15T04:07:58.146Z,8.50
2022-10-15T04:10:29.595Z,8.60
2022-10-15T04:12:57.661Z,8.60
2022-10-15T04:15:27.303Z,8.70
2022-10-15T04:18:00.279Z,8.70
2022-10-15T04:20:30.632Z,8.80
2022-10-15T04:23:11.137Z,8.80
2022-10-15T04:25:43.132Z,9.00
2022-10-15T04:28:11.744Z,9.00
2022-10-15T04:30:40.829Z,9.10
2022-10-15T04:33:13.339Z,9.10
2022-10-15T04:35:41.403Z,9.20
2022-10-15T04:38:17.184Z,9.10
2022-10-15T04:41:05.429Z,9.10
2022-10-15T04:44:11.770Z,9.00
2022-10-15T04:46:40.919Z,9.00
2022-10-15T04:49:27.237Z,8.90
2022-10-15T04:51:55.575Z,8.80
2022-10-15T04:54:29.656Z,8.80
2022-10-15T04:57:01.686Z,8.70
2022-10-15T04:59:29.808Z,8.70
2022-10-15T05:02:20.533Z,8.70
2022-10-15T05:04:54.899Z,8.60
2022-10-15T05:07:23.992Z,8.60
2022-10-15T05:09:54.338Z,8.60
2022-10-15T05:12:23.912Z,8.60
2022-10-15T05:14:52.716Z,8.60
2022-10-15T05:17:26.964Z,8.60
2022-10-15T05:19:56.343Z,8.50
2022-10-15T05:22:28.076Z,8.50
2022-10-15T05:25:00.188Z,8.50
2022-10-15T05:27:34.493Z,8.50
2022-10-15T05:30:05.717Z,8.50
2022-10-15T05:32:39.280Z,8.50
2022-10-15T05:35:11.643Z,8.50
2022-10-15T05:38:08.842Z,8.60
2022-10-15T05:40:37.012Z,8.60
2022-10-15T05:43:09.425Z,8.60
2022-10-15T05:45:37.517Z,8.70
2022-10-15T05:48:07.880Z,8.70
2022-10-15T05:50:36.946Z,8.70
2022-10-15T05:53:09.353Z,8.70
2022-10-15T05:55:37.418Z,8.90
2022-10-15T05:58:06.223Z,9.10
2022-10-15T06:00:36.539Z,9.30
2022-10-15T06:03:04.719Z,9.50
2022-10-15T06:05:33.724Z,9.70
2022-10-15T06:08:01.778Z,9.80
2022-10-15T06:10:29.855Z,10.00
2022-10-15T06:12:58.323Z,10.10
2022-10-15T06:15:26.439Z,10.20
2022-10-15T06:17:56.260Z,10.40
2022-10-15T06:20:24.471Z,10.50
2022-10-15T06:22:52.549Z,10.70
2022-10-15T06:25:20.596Z,10.80
2022-10-15T06:27:48.655Z,10.90
2022-10-15T06:30:16.811Z,11.00
2022-10-15T06:32:49.068Z,11.10
2022-10-15T06:35:20.117Z,11.10
2022-10-15T06:37:48.582Z,11.20
2022-10-15T06:40:16.958Z,11.20
2022-10-15T06:42:45.314Z,11.30
2022-10-15T06:45:15.842Z,11.10
2022-10-15T06:47:46.462Z,11.10
2022-10-15T06:50:14.627Z,11.00
2022-10-15T06:52:44.416Z,11.10
2022-10-15T06:55:12.442Z,11.10
2022-10-15T06:57:40.490Z,11.20
2022-10-15T07:00:09.488Z,11.10
2022-10-15T07:02:37.553Z,11.30
2022-10-15T07:05:06.326Z,11.40
2022-10-15T07:07:34.420Z,11.50
2022-10-15T07:10:04.477Z,11.60
2022-10-15T07:12:32.899Z,11.70
2022-10-15T07:15:00.947Z,11.80
2022-10-15T07:17:30.812Z,11.90
2022-10-15T07:19:58.895Z,12.10
2022-10-15T07:22:27.109Z,12.20
2022-10-15T07:24:55.265Z,12.30
2022-10-15T07:27:24.732Z,12.40
2022-10-15T07:29:53.372Z,12.60
2022-10-15T07:32:21.565Z,12.70
2022-10-15T07:34:49.863Z,12.80
2022-10-15T07:37:18.069Z,12.90
2022-10-15T07:39:46.184Z,12.90
2022-10-15T07:42:14.287Z,13.00
2022-10-15T07:44:43.790Z,13.10
2022-10-15T07:47:11.853Z,13.10
2022-10-15T07:49:39.989Z,13.30
2022-10-15T07:52:08.777Z,13.40
2022-10-15T07:54:37.556Z,13.50
2022-10-15T07:57:07.045Z,13.50
2022-10-15T07:59:35.396Z,13.60
2022-10-15T08:02:04.982Z,13.70
2022-10-15T08:04:34.987Z,13.80
2022-10-15T08:07:04.872Z,13.90
2022-10-15T08:09:36.620Z,14.00
2022-10-15T08:12:06.937Z,14.10
2022-10-15T08:14:35.660Z,14.00
2022-10-15T08:17:05.912Z,14.10
2022-10-15T08:19:34.504Z,14.10
2022-10-15T08:22:02.971Z,14.20
2022-10-15T08:24:31.161Z,14.30
2022-10-15T08:26:59.670Z,14.40
2022-10-15T08:29:27.805Z,14.50
2022-10-15T08:31:55.856Z,14.70
2022-10-15T08:34:26.620Z,14.80
2022-10-15T08:36:54.720Z,15.00
2022-10-15T08:39:22.854Z,15.10
2022-10-15T08:41:54.180Z,15.20
2022-10-15T08:44:26.120Z,15.30
2022-10-15T08:47:02.384Z,15.30
2022-10-15T08:49:43.376Z,15.30
2022-10-15T08:52:22.211Z,15.30
2022-10-15T08:54:50.405Z,15.40
2022-10-15T08:57:25.440Z,15.50
2022-10-15T09:00:02.735Z,15.60
2022-10-15T09:02:36.769Z,15.80
2022-10-15T09:05:23.936Z,15.90
2022-10-15T09:07:58.514Z,16.00
2022-10-15T09:10:37.256Z,16.00
2022-10-15T09:13:13.925Z,15.90
2022-10-15T09:15:50.287Z,15.90
2022-10-15T09:18:23.508Z,16.10
2022-10-15T09:20:53.640Z,16.20
2022-10-15T09:23:23.899Z,16.30
2022-10-15T09:26:00.303Z,16.40
2022-10-15T09:28:37.082Z,16.40
2022-10-15T09:31:06.783Z,16.40
2022-10-15T09:33:40.853Z,16.50
2022-10-15T09:36:27.304Z,16.60
2022-10-15T09:39:04.470Z,16.60
2022-10-15T09:41:46.843Z,16.60
2022-10-15T09:44:19.671Z,16.50
2022-10-15T09:46:51.783Z,16.40
2022-10-15T09:49:24.015Z,16.50
2022-10-15T09:52:03.932Z,16.50
2022-10-15T09:54:43.896Z,16.60
2022-10-15T09:57:15.332Z,16.70
2022-10-15T09:59:54.581Z,16.90
2022-10-15T10:02:24.583Z,16.90
2022-10-15T10:04:53.426Z,16.90
2022-10-15T10:07:34.949Z,16.90
2022-10-15T10:10:06.611Z,16.90
2022-10-15T10:12:36.969Z,16.80
2022-10-15T10:15:09.839Z,16.80
2022-10-15T10:17:38.123Z,17.00
2022-10-15T10:20:17.001Z,17.10
2022-10-15T10:22:51.166Z,17.40
2022-10-15T10:25:35.933Z,17.50
2022-10-15T10:28:17.745Z,17.80
2022-10-15T10:30:53.512Z,18.10
2022-10-15T10:33:27.508Z,18.20
2022-10-15T10:35:56.995Z,18.20
2022-10-15T10:38:30.499Z,18.20
2022-10-15T10:41:05.347Z,18.10
2022-10-15T10:43:39.055Z,18.20
2022-10-15T10:46:19.255Z,18.40
2022-10-15T10:48:49.813Z,18.70
2022-10-15T10:51:19.964Z,19.00
2022-10-15T10:53:57.629Z,19.40
2022-10-15T10:56:29.935Z,19.50
2022-10-15T10:59:02.657Z,19.70
2022-10-15T11:01:31.060Z,19.80
2022-10-15T11:03:59.186Z,20.00
2022-10-15T11:06:55.433Z,20.30
2022-10-15T11:09:50.043Z,20.40
2022-10-15T11:12:45.240Z,20.50
2022-10-15T11:15:24.825Z,20.50
2022-10-15T11:18:03.644Z,20.60
2022-10-15T11:20:57.835Z,20.70
2022-10-15T11:23:44.419Z,20.90
2022-10-15T11:26:37.046Z,21.10
2022-10-15T11:29:15.920Z,20.90
2022-10-15T11:32:02.891Z,20.50
2022-10-15T11:34:53.312Z,20.40
2022-10-15T11:37:35.765Z,19.90
2022-10-15T11:40:24.104Z,19.30
2022-10-15T11:42:58.522Z,18.80
2022-10-15T11:45:48.599Z,18.50
2022-10-15T11:48:26.227Z,18.30
2022-10-15T11:51:01.303Z,18.20
2022-10-15T11:53:53.799Z,18.20
2022-10-15T11:56:26.613Z,18.10
2022-10-15T11:59:01.931Z,18.10
2022-10-15T12:01:37.066Z,18.20
2022-10-15T12:04:13.502Z,18.20
2022-10-15T12:06:46.731Z,18.20
2022-10-15T12:09:20.705Z,18.20
2022-10-15T12:11:52.670Z,18.20
2022-10-15T12:14:28.479Z,18.10
2022-10-15T12:17:04.995Z,18.10
2022-10-15T12:19:41.177Z,18.00
2022-10-15T12:22:11.885Z,17.90
2022-10-15T12:24:54.891Z,17.90
2022-10-15T12:27:26.301Z,17.80
2022-10-15T12:30:21.018Z,17.80
2022-10-15T12:32:51.998Z,17.70
2022-10-15T12:35:24.851Z,17.70
2022-10-15T12:37:53.448Z,17.60
2022-10-15T12:40:30.619Z,17.70
2022-10-15T12:43:01.166Z,17.60
2022-10-15T12:45:39.209Z,17.60
2022-10-15T12:48:29.178Z,17.60
2022-10-15T12:51:39.461Z,17.60
2022-10-15T12:54:36.900Z,17.60
2022-10-15T12:57:20.555Z,17.60
2022-10-15T12:59:58.182Z,17.60
2022-10-15T13:02:38.895Z,17.50
2022-10-15T13:05:08.729Z,17.50
2022-10-15T13:07:41.290Z,17.50
2022-10-15T13:10:21.628Z,17.50
2022-10-15T13:12:55.109Z,17.50
2022-10-15T13:15:26.283Z,17.50
2022-10-15T13:17:56.372Z,17.40
2022-10-15T13:20:34.418Z,17.40
2022-10-15T13:23:28.963Z,17.30
2022-10-15T13:26:18.435Z,17.30
2022-10-15T13:28:47.475Z,17.20
2022-10-15T13:31:26.063Z,17.20
2022-10-15T13:34:01.243Z,17.20
2022-10-15T13:36:32.475Z,17.10
2022-10-15T13:39:03.702Z,17.10
2022-10-15T13:41:35.046Z,17.10
2022-10-15T13:44:03.204Z,17.00
2022-10-15T13:46:33.820Z,17.00
2022-10-15T13:49:05.524Z,17.00
2022-10-15T13:51:36.336Z,16.90
2022-10-15T13:54:10.243Z,17.00
2022-10-15T13:56:38.684Z,16.90
2022-10-15T13:59:07.403Z,16.90
2022-10-15T14:01:36.945Z,16.90
2022-10-15T14:04:18.057Z,16.90
2022-10-15T14:06:57.119Z,16.90
2022-10-15T14:09:30.464Z,16.80
2022-10-15T14:12:02.365Z,16.70
2022-10-15T14:14:35.145Z,16.60
2022-10-15T14:17:05.746Z,16.50
2022-10-15T14:19:37.944Z,16.40
2022-10-15T14:22:06.766Z,16.40
2022-10-15T14:24:36.669Z,16.30
2022-10-15T14:27:07.904Z,16.30
2022-10-15T14:29:40.793Z,16.30
2022-10-15T14:32:24.293Z,16.30
2022-10-15T14:34:54.625Z,16.30
2022-10-15T14:37:31.294Z,16.30
2022-10-15T14:40:14.528Z,16.30
2022-10-15T14:42:44.531Z,16.20
2022-10-15T14:45:14.551Z,16.20
2022-10-15T14:47:45.414Z,16.10
2022-10-15T14:50:15.252Z,16.10
2022-10-15T14:52:46.676Z,16.10
2022-10-15T14:55:21.077Z,16.00
2022-10-15T14:57:49.981Z,16.00
2022-10-15T15:00:25.294Z,16.00
2022-10-15T15:02:55.848Z,16.00
2022-10-15T15:05:27.176Z,15.90
2022-10-15T15:07:56.965Z,15.90
2022-10-15T15:10:26.512Z,15.90
2022-10-15T15:12:56.918Z,15.90
2022-10-15T15:15:27.513Z,15.90
2022-10-15T15:17:56.052Z,15.90
2022-10-15T15:20:25.961Z,15.90
2022-10-15T15:22:56.194Z,15.90
2022-10-15T15:25:29.775Z,15.90
2022-10-15T15:27:58.277Z,15.90
2022-10-15T15:30:28.252Z,15.90
2022-10-15T15:32:56.349Z,15.90
2022-10-15T15:35:40.152Z,15.90
2022-10-15T15:38:08.588Z,15.90
2022-10-15T15:40:37.189Z,15.80
2022-10-15T15:43:05.247Z,15.80
2022-10-15T15:45:33.471Z,15.70
2022-10-15T15:48:03.714Z,15.70
2022-10-15T15:50:33.870Z,15.60
2022-10-15T15:53:06.553Z,15.60
2022-10-15T15:55:34.722Z,15.60
2022-10-15T15:58:02.809Z,15.50
2022-10-15T16:00:31.005Z,15.40
2022-10-15T16:02:59.048Z,15.40
2022-10-15T16:05:27.248Z,15.40
2022-10-15T16:07:56.941Z,15.40
2022-10-15T16:10:25.344Z,15.20
2022-10-15T16:12:53.427Z,15.30
2022-10-15T16:15:21.457Z,15.20
2022-10-15T16:17:49.540Z,15.20
2022-10-15T16:20:17.732Z,15.10
2022-10-15T16:22:45.823Z,15.00
2022-10-15T16:25:15.282Z,15.00
2022-10-15T16:27:45.549Z,15.00
2022-10-15T16:30:13.685Z,14.90
2022-10-15T16:32:41.742Z,14.90
2022-10-15T16:35:10.580Z,14.90
2022-10-15T16:37:38.641Z,14.80
2022-10-15T16:40:07.983Z,14.70
2022-10-15T16:42:37.455Z,14.80
2022-10-15T16:45:06.044Z,14.70
2022-10-15T16:47:34.096Z,14.70
2022-10-15T16:50:02.566Z,14.60
2022-10-15T16:52:30.722Z,14.60
2022-10-15T16:54:58.892Z,14.50
2022-10-15T16:57:27.321Z,14.50
2022-10-15T16:59:56.902Z,14.50
2022-10-15T17:02:25.574Z,14.40
2022-10-15T17:04:54.035Z,14.40
2022-10-15T17:07:22.195Z,14.30
2022-10-15T17:09:50.669Z,14.30
2022-10-15T17:12:18.767Z,14.20
2022-10-15T17:14:50.689Z,14.20
2022-10-15T17:17:20.183Z,14.10
2022-10-15T17:19:48.246Z,14.10
2022-10-15T17:22:16.323Z,14.00
2022-10-15T17:24:44.674Z,14.00
2022-10-15T17:27:12.817Z,14.00
2022-10-15T17:29:40.927Z,14.00
2022-10-15T17:32:08.988Z,14.00
2022-10-15T17:34:38.431Z,14.00
2022-10-15T17:37:08.103Z,14.00
2022-10-15T17:39:36.690Z,14.00
2022-10-15T17:42:05.117Z,14.00
2022-10-15T17:44:33.168Z,14.00
2022-10-15T17:47:01.299Z,14.00
2022-10-15T17:49:29.507Z,14.10
2022-10-15T17:51:59.037Z,14.10
2022-10-15T17:54:27.918Z,14.10
2022-10-15T17:56:56.081Z,14.10
2022-10-15T17:59:24.808Z,14.10
2022-10-15T18:01:58.368Z,14.10
2022-10-15T18:04:28.267Z,14.20
2022-10-15T18:06:56.432Z,14.10
2022-10-15T18:09:29.303Z,14.20
2022-10-15T18:12:01.066Z,14.30
2022-10-15T18:14:30.999Z,14.20
2022-10-15T18:16:59.769Z,14.20
2022-10-15T18:19:28.209Z,14.30
2022-10-15T18:21:56.835Z,14.30
2022-10-15T18:24:25.605Z,14.30
2022-10-15T18:26:55.377Z,14.30
2022-10-15T18:29:25.316Z,14.30
2022-10-15T18:31:57.654Z,14.40
2022-10-15T18:34:28.407Z,14.40
2022-10-15T18:36:56.527Z,14.40
2022-10-15T18:39:25.215Z,14.50
2022-10-15T18:41:54.739Z,14.50
2022-10-15T18:44:23.413Z,14.50
2022-10-15T18:46:52.794Z,14.50
2022-10-15T18:49:21.929Z,14.60
2022-10-15T18:51:52.853Z,14.60
2022-10-15T18:54:22.702Z,14.50
2022-10-15T18:56:52.574Z,14.50
2022-10-15T18:59:22.551Z,14.50
2022-10-15T19:01:53.757Z,14.40
2022-10-15T19:04:23.984Z,14.40
2022-10-15T19:06:53.796Z,14.40
2022-10-15T19:09:24.696Z,14.30
2022-10-15T19:11:54.498Z,14.30
2022-10-15T19:14:25.849Z,14.30
2022-10-15T19:16:54.200Z,14.30
2022-10-15T19:19:23.918Z,14.30
2022-10-15T19:21:55.865Z,14.30
2022-10-15T19:24:25.102Z,14.30
2022-10-15T19:26:53.569Z,14.40
2022-10-15T19:29:23.508Z,14.40
2022-10-15T19:31:53.912Z,14.40
2022-10-15T19:34:23.229Z,14.50
2022-10-15T19:36:51.704Z,14.50
2022-10-15T19:39:22.175Z,14.50
2022-10-15T19:41:50.798Z,14.50
2022-10-15T19:44:24.726Z,14.50
2022-10-15T19:46:55.057Z,14.50
2022-10-15T19:49:23.624Z,14.50
2022-10-15T19:51:55.229Z,14.60
2022-10-15T19:54:26.506Z,14.60
2022-10-15T19:56:54.571Z,14.50
2022-10-15T19:59:22.739Z,14.50
2022-10-15T20:01:50.893Z,14.50
2022-10-15T20:04:21.943Z,14.50
2022-10-15T20:06:52.643Z,14.50
2022-10-15T20:09:25.674Z,14.50
2022-10-15T20:11:53.892Z,14.50
2022-10-15T20:14:23.271Z,14.50
2022-10-15T20:16:51.360Z,14.50
2022-10-15T20:19:23.004Z,14.50
2022-10-15T20:21:51.389Z,14.50
2022-10-15T20:24:19.536Z,14.50
2022-10-15T20:26:47.709Z,14.40
2022-10-15T20:29:17.422Z,14.30
2022-10-15T20:31:45.595Z,14.20
2022-10-15T20:34:13.740Z,14.10
2022-10-15T20:36:43.269Z,14.10
2022-10-15T20:39:11.454Z,14.00
2022-10-15T20:41:39.594Z,13.90
2022-10-15T20:44:07.822Z,13.80
2022-10-15T20:46:41.307Z,13.80
2022-10-15T20:49:14.723Z,13.70
2022-10-15T20:51:45.953Z,13.70
2022-10-15T20:54:15.203Z,13.70
2022-10-15T20:56:43.664Z,13.60
2022-10-15T20:59:12.068Z,13.60
2022-10-15T21:01:40.293Z,13.60
2022-10-15T21:04:08.471Z,13.60
2022-10-15T21:06:36.537Z,13.70
2022-10-15T21:09:06.144Z,13.70
2022-10-15T21:11:34.199Z,13.70
2022-10-15T21:14:02.338Z,13.80
2022-10-15T21:19:03.438Z,13.90
2022-10-15T21:21:32.473Z,13.90
2022-10-15T21:24:00.838Z,13.90
2022-10-15T21:26:30.420Z,13.90
2022-10-15T21:29:00.233Z,14.00
2022-10-15T21:31:28.588Z,14.00
2022-10-15T21:33:57.604Z,14.00
2022-10-15T21:36:27.470Z,14.00
2022-10-15T21:38:57.142Z,14.00
2022-10-15T21:41:26.879Z,14.00
2022-10-15T21:43:56.393Z,14.00
2022-10-15T21:46:24.979Z,14.00
2022-10-15T21:48:53.844Z,14.00
2022-10-15T21:51:24.925Z,14.00
2022-10-15T21:53:53.172Z,14.00
2022-10-15T21:56:22.019Z,14.00
2022-10-15T21:58:50.909Z,14.00
2022-10-15T22:01:22.790Z,14.00
2022-10-15T22:03:52.645Z,14.00
2022-10-15T22:06:21.868Z,13.90
2022-10-15T22:08:50.425Z,13.90
2022-10-15T22:11:21.040Z,13.90
2022-10-15T22:13:51.195Z,13.90
2022-10-15T22:16:21.263Z,13.90
2022-10-15T22:18:49.379Z,13.90
2022-10-15T22:21:19.070Z,13.90
2022-10-15T22:23:48.444Z,13.90
2022-10-15T22:26:18.873Z,13.80
2022-10-15T22:28:47.349Z,13.80
2022-10-15T22:31:17.593Z,13.80
2022-10-15T22:33:47.309Z,13.80
2022-10-15T22:36:16.909Z,13.80
2022-10-15T22:38:47.974Z,13.80
2022-10-15T22:41:16.672Z,13.80
2022-10-15T22:43:45.054Z,13.80
2022-10-15T22:46:13.338Z,13.80
2022-10-15T22:48:42.655Z,13.80
2022-10-15T22:51:14.389Z,13.80
2022-10-15T22:53:42.882Z,13.80
2022-10-15T22:56:14.277Z,13.80
2022-10-15T22:58:42.790Z,13.80
2022-10-15T23:01:12.905Z,13.70
2022-10-15T23:03:41.897Z,13.70
2022-10-15T23:06:11.674Z,13.70
2022-10-15T23:08:40.770Z,13.70
2022-10-15T23:11:10.617Z,13.70
2022-10-15T23:13:39.668Z,13.70
2022-10-15T23:16:09.258Z,13.70
2022-10-15T23:18:37.856Z,13.70
2022-10-15T23:21:07.664Z,13.70
2022-10-15T23:23:37.121Z,13.70
2022-10-15T23:26:05.239Z,13.70
2022-10-15T23:28:33.380Z,13.70
2022-10-15T23:31:01.510Z,13.70
2022-10-15T23:33:29.653Z,13.70
2022-10-15T23:35:59.123Z,13.70
2022-10-15T23:38:28.158Z,13.60
2022-10-15T23:41:06.154Z,13.70
2022-10-15T23:43:34.620Z,13.70
2022-10-15T23:46:02.988Z,13.70
2022-10-15T23:48:31.097Z,13.70
2022-10-15T23:51:02.545Z,13.70
2022-10-15T23:53:33.679Z,13.70
2022-10-15T23:56:04.105Z,13.70
2022-10-15T23:58:33.072Z,13.70
